sensor_id;sensor_type;location;lat;lon;timestamp;pressure;altitude;pressure_sealevel;temperature;humidity
53699;BME280;68408;53.952;27.612;2023-04-05T00:01:21;1014.8;;;2.5;68.1
53699;BME280;68408;53.952;27.612;2023-04-05T00:06:13;1014.7;;;2.4;68.2
53699;BME280;68408;53.952;27.612;2023-04-05T00:11:13;1014.7;;;2.4;68
53699;BME280;68408;53.952;27.612;2023-04-05T00:16:21;1014.6;;;2.4;68
53699;BME280;68408;53.952;27.612;2023-04-05T00:21:29;1014.7;;;2.4;67.7
53699;BME280;68408;53.952;27.612;2023-04-05T00:26:15;1014.7;;;2.4;67.5
53699;BME280;68408;53.952;27.612;2023-04-05T00:31:01;1014.7;;;2.3;67.5
53699;BME280;68408;53.952;27.612;2023-04-05T00:36:08;1014.6;;;2.4;67.3
53699;BME280;68408;53.952;27.612;2023-04-05T00:41:21;1014.6;;;2.2;67.5
53699;BME280;68408;53.952;27.612;2023-04-05T00:46:21;1014.5;;;2.1;67.8
53699;BME280;68408;53.952;27.612;2023-04-05T00:51:35;1014.4;;;2.1;68
53699;BME280;68408;53.952;27.612;2023-04-05T00:56:01;1014.4;;;2;68.1
53699;BME280;68408;53.952;27.612;2023-04-05T01:01:15;1014.3;;;2;68.3
53699;BME280;68408;53.952;27.612;2023-04-05T01:05:54;1014.4;;;2;68.5
53699;BME280;68408;53.952;27.612;2023-04-05T01:11:35;1014.4;;;1.9;68.5
53699;BME280;68408;53.952;27.612;2023-04-05T01:16:35;1014.4;;;2;68.6
53699;BME280;68408;53.952;27.612;2023-04-05T01:20:54;1014.3;;;1.9;68.8
53699;BME280;68408;53.952;27.612;2023-04-05T01:26:20;1014.3;;;1.9;68.8
53699;BME280;68408;53.952;27.612;2023-04-05T01:31:14;1014.3;;;1.9;68.8
53699;BME280;68408;53.952;27.612;2023-04-05T01:36:20;1014.2;;;1.9;68.9
53699;BME280;68408;53.952;27.612;2023-04-05T01:41:35;1014.1;;;1.9;69
53699;BME280;68408;53.952;27.612;2023-04-05T01:46:11;1014.1;;;1.8;69.4
53699;BME280;68408;53.952;27.612;2023-04-05T01:51:13;1014.1;;;1.8;69.6
53699;BME280;68408;53.952;27.612;2023-04-05T01:56:01;1014.1;;;1.8;69.7
53699;BME280;68408;53.952;27.612;2023-04-05T02:01:21;1014;;;1.7;69.8
53699;BME280;68408;53.952;27.612;2023-04-05T02:06:35;1014;;;1.7;70
53699;BME280;68408;53.952;27.612;2023-04-05T02:11:05;1014.1;;;1.7;70.2
53699;BME280;68408;53.952;27.612;2023-04-05T02:16:13;1014.2;;;1.7;70.1
53699;BME280;68408;53.952;27.612;2023-04-05T02:21:01;1014.1;;;1.7;70.1
53699;BME280;68408;53.952;27.612;2023-04-05T02:26:35;1014.1;;;1.7;70.1
53699;BME280;68408;53.952;27.612;2023-04-05T02:31:35;1014.1;;;1.6;70.3
53699;BME280;68408;53.952;27.612;2023-04-05T02:35:53;1014.1;;;1.6;70.2
53699;BME280;68408;53.952;27.612;2023-04-05T02:40:53;1014.1;;;1.6;70.3
53699;BME280;68408;53.952;27.612;2023-04-05T02:46:27;1014.2;;;1.6;70.3
53699;BME280;68408;53.952;27.612;2023-04-05T02:51:19;1014.2;;;1.6;70.4
53699;BME280;68408;53.952;27.612;2023-04-05T02:56:35;1014.2;;;1.6;70.5
53699;BME280;68408;53.952;27.612;2023-04-05T03:00:53;1014.2;;;1.6;70.5
53699;BME280;68408;53.952;27.612;2023-04-05T03:06:13;1014.2;;;1.6;70.6
53699;BME280;68408;53.952;27.612;2023-04-05T03:11:01;1014.3;;;1.6;70.5
53699;BME280;68408;53.952;27.612;2023-04-05T03:16:21;1014.4;;;1.6;70.7
53699;BME280;68408;53.952;27.612;2023-04-05T03:21:35;1014.4;;;1.6;70.9
53699;BME280;68408;53.952;27.612;2023-04-05T03:25:53;1014.4;;;1.6;71.1
53699;BME280;68408;53.952;27.612;2023-04-05T03:31:13;1014.4;;;1.6;70.8
53699;BME280;68408;53.952;27.612;2023-04-05T03:36:15;1014.4;;;1.7;73.8
53699;BME280;68408;53.952;27.612;2023-04-05T03:41:19;1014.4;;;1.7;72.8
53699;BME280;68408;53.952;27.612;2023-04-05T03:46:33;1014.4;;;1.8;70.9
53699;BME280;68408;53.952;27.612;2023-04-05T03:50:53;1014.4;;;1.8;70.6
53699;BME280;68408;53.952;27.612;2023-04-05T03:56:11;1014.4;;;1.8;70.4
53699;BME280;68408;53.952;27.612;2023-04-05T04:00:53;1014.4;;;1.7;70.4
53699;BME280;68408;53.952;27.612;2023-04-05T04:06:19;1014.3;;;1.7;70.4
53699;BME280;68408;53.952;27.612;2023-04-05T04:11:23;1014.3;;;1.7;70.6
53699;BME280;68408;53.952;27.612;2023-04-05T04:15:53;1014.3;;;1.7;70.5
53699;BME280;68408;53.952;27.612;2023-04-05T04:21:15;1014.3;;;1.8;70.4
53699;BME280;68408;53.952;27.612;2023-04-05T04:25:53;1014.3;;;1.9;70
53699;BME280;68408;53.952;27.612;2023-04-05T04:31:21;1014.2;;;1.9;69.8
53699;BME280;68408;53.952;27.612;2023-04-05T04:36:33;1014.2;;;2;69.5
53699;BME280;68408;53.952;27.612;2023-04-05T04:41:23;1014.2;;;2;69.4
53699;BME280;68408;53.952;27.612;2023-04-05T04:46:13;1014.2;;;2;69.4
53699;BME280;68408;53.952;27.612;2023-04-05T04:50:53;1014.3;;;2;69.3
53699;BME280;68408;53.952;27.612;2023-04-05T04:56:23;1014.3;;;2.1;69.1
53699;BME280;68408;53.952;27.612;2023-04-05T05:01:29;1014.3;;;2.2;68.9
53699;BME280;68408;53.952;27.612;2023-04-05T05:21:15;1014.3;;;2.5;68.1
53699;BME280;68408;53.952;27.612;2023-04-05T05:26:33;1014.3;;;2.9;66.9
53699;BME280;68408;53.952;27.612;2023-04-05T05:31:21;1014.2;;;3.1;66.1
53699;BME280;68408;53.952;27.612;2023-04-05T05:36:11;1014.2;;;3.3;65.7
53699;BME280;68408;53.952;27.612;2023-04-05T05:41:11;1014.2;;;3.5;65.1
53699;BME280;68408;53.952;27.612;2023-04-05T05:46:21;1014.2;;;3.8;64.3
53699;BME280;68408;53.952;27.612;2023-04-05T05:51:33;1014.2;;;4;63.1
53699;BME280;68408;53.952;27.612;2023-04-05T05:56:23;1014.2;;;4.2;62.7
53699;BME280;68408;53.952;27.612;2023-04-05T06:01:11;1014.2;;;4.3;62.4
53699;BME280;68408;53.952;27.612;2023-04-05T06:05:53;1014.2;;;4.3;62.9
53699;BME280;68408;53.952;27.612;2023-04-05T06:11:25;1014.2;;;4.3;62.7
53699;BME280;68408;53.952;27.612;2023-04-05T06:16:27;1014.2;;;4.4;62
53699;BME280;68408;53.952;27.612;2023-04-05T06:21:25;1014.2;;;4.5;61.8
53699;BME280;68408;53.952;27.612;2023-04-05T06:26:15;1014.3;;;4.3;61.8
53699;BME280;68408;53.952;27.612;2023-04-05T06:31:03;1014.3;;;4.4;61.3
53699;BME280;68408;53.952;27.612;2023-04-05T06:36:25;1014.3;;;4.3;61.5
53699;BME280;68408;53.952;27.612;2023-04-05T06:41:39;1014.3;;;4.4;61.3
53699;BME280;68408;53.952;27.612;2023-04-05T06:46:09;1014.3;;;4.6;60.5
53699;BME280;68408;53.952;27.612;2023-04-05T06:51:13;1014.3;;;4.6;60.1
53699;BME280;68408;53.952;27.612;2023-04-05T06:56:03;1014.4;;;4.4;60.4
53699;BME280;68408;53.952;27.612;2023-04-05T07:01:25;1014.4;;;4.5;60.3
53699;BME280;68408;53.952;27.612;2023-04-05T07:06:19;1014.3;;;4.7;59.7
53699;BME280;68408;53.952;27.612;2023-04-05T07:11:37;1014.4;;;4.9;59.1
53699;BME280;68408;53.952;27.612;2023-04-05T07:16:13;1014.4;;;5;58.9
53699;BME280;68408;53.952;27.612;2023-04-05T07:20:55;1014.4;;;5.3;58.1
53699;BME280;68408;53.952;27.612;2023-04-05T07:26:15;1014.4;;;5.4;58.1
53699;BME280;68408;53.952;27.612;2023-04-05T07:31:37;1014.5;;;5.6;57.9
53699;BME280;68408;53.952;27.612;2023-04-05T07:36:25;1014.4;;;5.9;57.3
53699;BME280;68408;53.952;27.612;2023-04-05T07:40:53;1014.4;;;6;56.9
53699;BME280;68408;53.952;27.612;2023-04-05T07:46:03;1014.4;;;5.9;57.6
53699;BME280;68408;53.952;27.612;2023-04-05T07:51:25;1014.4;;;5.7;56.5
53699;BME280;68408;53.952;27.612;2023-04-05T07:56:37;1014.4;;;5.8;56.2
53699;BME280;68408;53.952;27.612;2023-04-05T08:01:25;1014.4;;;6.2;56
53699;BME280;68408;53.952;27.612;2023-04-05T08:06:14;1014.4;;;6.4;55.3
53699;BME280;68408;53.952;27.612;2023-04-05T08:11:03;1014.4;;;6.4;54.9
53699;BME280;68408;53.952;27.612;2023-04-05T08:16:37;1014.4;;;6.3;55.3
53699;BME280;68408;53.952;27.612;2023-04-05T08:21:27;1014.4;;;6.3;55.5
53699;BME280;68408;53.952;27.612;2023-04-05T08:26:03;1014.5;;;6.1;55.4
53699;BME280;68408;53.952;27.612;2023-04-05T08:31:37;1014.5;;;5.9;56.5
53699;BME280;68408;53.952;27.612;2023-04-05T08:36:03;1014.5;;;5.8;56.9
53699;BME280;68408;53.952;27.612;2023-04-05T08:41:35;1014.6;;;5.6;57.5
53699;BME280;68408;53.952;27.612;2023-04-05T08:46:29;1014.6;;;5.5;58.2
53699;BME280;68408;53.952;27.612;2023-04-05T08:50:54;1014.6;;;5.8;58.1
53699;BME280;68408;53.952;27.612;2023-04-05T08:56:37;1014.5;;;6;57.1
53699;BME280;68408;53.952;27.612;2023-04-05T09:00:53;1014.5;;;6.2;57.1
53699;BME280;68408;53.952;27.612;2023-04-05T09:06:37;1014.6;;;6.3;56
53699;BME280;68408;53.952;27.612;2023-04-05T09:11:29;1014.6;;;6;55.8
53699;BME280;68408;53.952;27.612;2023-04-05T09:16:19;1014.5;;;6.1;56.5
53699;BME280;68408;53.952;27.612;2023-04-05T09:22:07;1014.5;;;6.5;56.1
53699;BME280;68408;53.952;27.612;2023-04-05T09:26:23;1014.6;;;6.7;55.9
53699;BME280;68408;53.952;27.612;2023-04-05T09:31:35;1014.7;;;6.6;56.3
53699;BME280;68408;53.952;27.612;2023-04-05T09:36:27;1014.6;;;6.5;55.9
53699;BME280;68408;53.952;27.612;2023-04-05T09:41:07;1014.6;;;6.5;55.9
53699;BME280;68408;53.952;27.612;2023-04-05T09:46:30;1014.7;;;6.3;56.4
53699;BME280;68408;53.952;27.612;2023-04-05T09:51:03;1014.7;;;6.4;56.6
53699;BME280;68408;53.952;27.612;2023-04-05T09:56:34;1014.7;;;6.4;56.5
53699;BME280;68408;53.952;27.612;2023-04-05T10:01:28;1014.7;;;6.4;56.1
53699;BME280;68408;53.952;27.612;2023-04-05T10:05:59;1014.6;;;6.5;55.2
53699;BME280;68408;53.952;27.612;2023-04-05T10:11:36;1014.7;;;6.6;55.3
53699;BME280;68408;53.952;27.612;2023-04-05T10:15:53;1014.7;;;6.4;55.7
53699;BME280;68408;53.952;27.612;2023-04-05T10:21:37;1014.7;;;6.2;57.7
53699;BME280;68408;53.952;27.612;2023-04-05T10:26:33;1014.7;;;6.2;58
53699;BME280;68408;53.952;27.612;2023-04-05T10:31:09;1014.7;;;6.2;58.8
53699;BME280;68408;53.952;27.612;2023-04-05T10:36:38;1014.7;;;6.5;57.9
53699;BME280;68408;53.952;27.612;2023-04-05T10:41:10;1014.8;;;6.5;57
53699;BME280;68408;53.952;27.612;2023-04-05T10:46:35;1014.8;;;6.5;57
53699;BME280;68408;53.952;27.612;2023-04-05T10:51:03;1014.7;;;6.8;56.7
53699;BME280;68408;53.952;27.612;2023-04-05T10:56:09;1014.7;;;6.8;56.5
53699;BME280;68408;53.952;27.612;2023-04-05T11:01:37;1014.7;;;6.6;56.7
53699;BME280;68408;53.952;27.612;2023-04-05T11:06:18;1014.8;;;6.6;56.7
53699;BME280;68408;53.952;27.612;2023-04-05T11:11:37;1014.7;;;6.6;56.8
53699;BME280;68408;53.952;27.612;2023-04-05T11:16:37;1014.7;;;6.7;57.2
53699;BME280;68408;53.952;27.612;2023-04-05T11:21:07;1014.7;;;6.7;56.6
53699;BME280;68408;53.952;27.612;2023-04-05T11:26:51;1014.7;;;6.5;56.8
53699;BME280;68408;53.952;27.612;2023-04-05T11:30:53;1014.8;;;6.4;56.6
53699;BME280;68408;53.952;27.612;2023-04-05T11:36:29;1014.8;;;6.3;57
53699;BME280;68408;53.952;27.612;2023-04-05T11:41:11;1014.8;;;6.5;57.2
53699;BME280;68408;53.952;27.612;2023-04-05T11:46:09;1014.8;;;6.5;57.2
53699;BME280;68408;53.952;27.612;2023-04-05T11:51:19;1014.9;;;6.3;57.3
53699;BME280;68408;53.952;27.612;2023-04-05T11:55:53;1014.9;;;6.1;58
53699;BME280;68408;53.952;27.612;2023-04-05T12:01:29;1014.8;;;6;58.5
53699;BME280;68408;53.952;27.612;2023-04-05T12:06:27;1014.8;;;6.2;58.7
53699;BME280;68408;53.952;27.612;2023-04-05T12:11:07;1014.7;;;6.5;58
53699;BME280;68408;53.952;27.612;2023-04-05T12:16:35;1014.8;;;6.7;57.4
53699;BME280;68408;53.952;27.612;2023-04-05T12:21:17;1014.7;;;6.8;56.9
53699;BME280;68408;53.952;27.612;2023-04-05T12:26:17;1014.7;;;6.5;57.8
53699;BME280;68408;53.952;27.612;2023-04-05T12:31:37;1014.7;;;6.5;57.7
53699;BME280;68408;53.952;27.612;2023-04-05T12:36:17;1014.7;;;6.4;57.9
53699;BME280;68408;53.952;27.612;2023-04-05T12:41:35;1014.6;;;6.6;58.2
53699;BME280;68408;53.952;27.612;2023-04-05T12:45:53;1014.7;;;6.4;58.6
53699;BME280;68408;53.952;27.612;2023-04-05T12:51:25;1014.7;;;6.3;59.1
53699;BME280;68408;53.952;27.612;2023-04-05T12:56:37;1014.7;;;6.2;59.5
53699;BME280;68408;53.952;27.612;2023-04-05T13:01:07;1014.7;;;6.1;59.8
53699;BME280;68408;53.952;27.612;2023-04-05T13:06:35;1014.7;;;5.9;60.7
53699;BME280;68408;53.952;27.612;2023-04-05T13:10:53;1014.7;;;5.8;60.9
53699;BME280;68408;53.952;27.612;2023-04-05T13:16:25;1014.7;;;6;60.6
53699;BME280;68408;53.952;27.612;2023-04-05T13:21:35;1014.6;;;6.1;60.2
53699;BME280;68408;53.952;27.612;2023-04-05T13:26:09;1014.7;;;6.1;59.9
53699;BME280;68408;53.952;27.612;2023-04-05T13:31:39;1014.7;;;5.9;60.2
53699;BME280;68408;53.952;27.612;2023-04-05T13:35:53;1014.8;;;5.8;60.7
53699;BME280;68408;53.952;27.612;2023-04-05T13:41:19;1014.8;;;5.5;61.7
53699;BME280;68408;53.952;27.612;2023-04-05T13:46:33;1014.9;;;5.4;61.8
53699;BME280;68408;53.952;27.612;2023-04-05T13:50:53;1014.8;;;5.3;62.3
53699;BME280;68408;53.952;27.612;2023-04-05T13:56:35;1014.8;;;5.3;62.4
53699;BME280;68408;53.952;27.612;2023-04-05T14:00:53;1014.9;;;5.1;63.2
53699;BME280;68408;53.952;27.612;2023-04-05T14:06:13;1014.9;;;5.1;63.2
53699;BME280;68408;53.952;27.612;2023-04-05T14:11:35;1014.9;;;5.1;63.5
53699;BME280;68408;53.952;27.612;2023-04-05T14:16:23;1014.9;;;5.1;63.6
53699;BME280;68408;53.952;27.612;2023-04-05T14:21:37;1014.9;;;5.2;64
53699;BME280;68408;53.952;27.612;2023-04-05T14:25:53;1015;;;5;64.6
53699;BME280;68408;53.952;27.612;2023-04-05T14:31:17;1015;;;4.9;64.8
53699;BME280;68408;53.952;27.612;2023-04-05T14:36:33;1015.1;;;4.8;65.3
53699;BME280;68408;53.952;27.612;2023-04-05T14:41:07;1015.1;;;4.7;65.7
53699;BME280;68408;53.952;27.612;2023-04-05T14:46:35;1015.2;;;4.6;66.3
53699;BME280;68408;53.952;27.612;2023-04-05T14:51:01;1015.2;;;4.5;66.6
53699;BME280;68408;53.952;27.612;2023-04-05T14:56:17;1015.3;;;4.5;67
53699;BME280;68408;53.952;27.612;2023-04-05T15:01:35;1015.3;;;4.4;67.1
53699;BME280;68408;53.952;27.612;2023-04-05T15:05:53;1015.3;;;4.4;67.3
53699;BME280;68408;53.952;27.612;2023-04-05T15:11:34;1015.4;;;4.5;67.4
53699;BME280;68408;53.952;27.612;2023-04-05T15:15:53;1015.4;;;4.5;67.7
53699;BME280;68408;53.952;27.612;2023-04-05T15:21:07;1015.4;;;4.5;68.2
53699;BME280;68408;53.952;27.612;2023-04-05T15:26:35;1015.4;;;4.4;68.5
53699;BME280;68408;53.952;27.612;2023-04-05T15:31:35;1015.4;;;4.3;68.9
53699;BME280;68408;53.952;27.612;2023-04-05T15:36:35;1015.4;;;4.3;69.2
53699;BME280;68408;53.952;27.612;2023-04-05T15:40:53;1015.5;;;4.2;69.6
53699;BME280;68408;53.952;27.612;2023-04-05T15:46:17;1015.4;;;4.2;70
53699;BME280;68408;53.952;27.612;2023-04-05T15:51:35;1015.4;;;4.2;69.9
53699;BME280;68408;53.952;27.612;2023-04-05T15:56:23;1015.4;;;4.1;70.3
53699;BME280;68408;53.952;27.612;2023-04-05T16:01:35;1015.4;;;4.1;70.2
53699;BME280;68408;53.952;27.612;2023-04-05T16:06:11;1015.4;;;4.1;70.4
53699;BME280;68408;53.952;27.612;2023-04-05T16:11:17;1015.4;;;4.1;70.6
53699;BME280;68408;53.952;27.612;2023-04-05T16:16:01;1015.3;;;4;70.6
53699;BME280;68408;53.952;27.612;2023-04-05T16:20:53;1015.3;;;3.9;70.7
53699;BME280;68408;53.952;27.612;2023-04-05T16:26:35;1015.3;;;3.9;71
53699;BME280;68408;53.952;27.612;2023-04-05T16:31:09;1015.3;;;3.9;71.2
53699;BME280;68408;53.952;27.612;2023-04-05T16:36:17;1015.3;;;3.8;71.4
53699;BME280;68408;53.952;27.612;2023-04-05T16:41:01;1015.4;;;3.8;71.6
53699;BME280;68408;53.952;27.612;2023-04-05T16:45:59;1015.4;;;3.8;71.7
53699;BME280;68408;53.952;27.612;2023-04-05T16:51:35;1015.4;;;3.8;72
53699;BME280;68408;53.952;27.612;2023-04-05T16:56:01;1015.4;;;3.8;72
53699;BME280;68408;53.952;27.612;2023-04-05T17:01:11;1015.4;;;3.8;72
53699;BME280;68408;53.952;27.612;2023-04-05T17:06:01;1015.5;;;3.7;72.3
53699;BME280;68408;53.952;27.612;2023-04-05T17:11:07;1015.4;;;3.7;72.5
53699;BME280;68408;53.952;27.612;2023-04-05T17:16:35;1015.4;;;3.6;72.8
53699;BME280;68408;53.952;27.612;2023-04-05T17:21:11;1015.5;;;3.6;72.9
53699;BME280;68408;53.952;27.612;2023-04-05T17:26:35;1015.5;;;3.6;73
53699;BME280;68408;53.952;27.612;2023-04-05T17:30:54;1015.6;;;3.6;73
53699;BME280;68408;53.952;27.612;2023-04-05T17:36:07;1015.5;;;3.7;72.9
53699;BME280;68408;53.952;27.612;2023-04-05T17:41:35;1015.5;;;3.7;72.9
53699;BME280;68408;53.952;27.612;2023-04-05T17:46:01;1015.5;;;3.7;73
53699;BME280;68408;53.952;27.612;2023-04-05T17:51:19;1015.6;;;3.7;73.2
53699;BME280;68408;53.952;27.612;2023-04-05T17:55:54;1015.6;;;3.7;73.3
53699;BME280;68408;53.952;27.612;2023-04-05T18:00:53;1015.7;;;3.7;73.3
53699;BME280;68408;53.952;27.612;2023-04-05T18:06:37;1015.6;;;3.7;73.6
53699;BME280;68408;53.952;27.612;2023-04-05T18:10:53;1015.5;;;3.7;73.7
53699;BME280;68408;53.952;27.612;2023-04-05T18:16:19;1015.5;;;3.7;73.8
53699;BME280;68408;53.952;27.612;2023-04-05T18:21:09;1015.5;;;3.7;74
53699;BME280;68408;53.952;27.612;2023-04-05T18:26:07;1015.5;;;3.7;74.1
53699;BME280;68408;53.952;27.612;2023-04-05T18:31:35;1015.5;;;3.7;74.2
53699;BME280;68408;53.952;27.612;2023-04-05T18:35:53;1015.5;;;3.7;74.1
53699;BME280;68408;53.952;27.612;2023-04-05T18:41:13;1015.6;;;3.7;74.2
53699;BME280;68408;53.952;27.612;2023-04-05T18:46:01;1015.6;;;3.6;74.4
53699;BME280;68408;53.952;27.612;2023-04-05T18:51:01;1015.5;;;3.6;74.4
53699;BME280;68408;53.952;27.612;2023-04-05T18:56:37;1015.5;;;3.6;74.8
53699;BME280;68408;53.952;27.612;2023-04-05T19:00:53;1015.5;;;3.6;74.8
53699;BME280;68408;53.952;27.612;2023-04-05T19:06:05;1015.6;;;3.6;75.1
53699;BME280;68408;53.952;27.612;2023-04-05T19:10:53;1015.5;;;3.5;75.2
53699;BME280;68408;53.952;27.612;2023-04-05T19:15:59;1015.5;;;3.6;75.3
53699;BME280;68408;53.952;27.612;2023-04-05T19:21:37;1015.4;;;3.6;75.2
53699;BME280;68408;53.952;27.612;2023-04-05T19:26:09;1015.3;;;3.5;75.6
53699;BME280;68408;53.952;27.612;2023-04-05T19:31:19;1015.4;;;3.5;75.6
53699;BME280;68408;53.952;27.612;2023-04-05T19:35:53;1015.4;;;3.5;75.9
53699;BME280;68408;53.952;27.612;2023-04-05T19:41:07;1015.4;;;3.5;76.1
53699;BME280;68408;53.952;27.612;2023-04-05T19:46:37;1015.4;;;3.5;76.1
53699;BME280;68408;53.952;27.612;2023-04-05T19:51:02;1015.4;;;3.5;76
53699;BME280;68408;53.952;27.612;2023-04-05T19:56:20;1015.4;;;3.6;76
53699;BME280;68408;53.952;27.612;2023-04-05T20:01:33;1015.3;;;3.6;75.9
53699;BME280;68408;53.952;27.612;2023-04-05T20:06:10;1015.3;;;3.6;76
53699;BME280;68408;53.952;27.612;2023-04-05T20:11:39;1015.2;;;3.6;75.9
53699;BME280;68408;53.952;27.612;2023-04-05T20:16:10;1015.2;;;3.6;76.1
53699;BME280;68408;53.952;27.612;2023-04-05T20:21:19;1015.3;;;3.6;76.2
53699;BME280;68408;53.952;27.612;2023-04-05T20:26:01;1015.3;;;3.7;76
53699;BME280;68408;53.952;27.612;2023-04-05T20:31:07;1015.2;;;3.7;76
53699;BME280;68408;53.952;27.612;2023-04-05T20:36:36;1015.1;;;3.6;76.2
53699;BME280;68408;53.952;27.612;2023-04-05T20:40:53;1015.1;;;3.7;76.2
53699;BME280;68408;53.952;27.612;2023-04-05T20:46:19;1015.3;;;3.7;76.2
53699;BME280;68408;53.952;27.612;2023-04-05T20:51:03;1015.3;;;3.7;76.1
53699;BME280;68408;53.952;27.612;2023-04-05T20:56:06;1015.2;;;3.7;76.1
53699;BME280;68408;53.952;27.612;2023-04-05T21:01:33;1015.1;;;3.7;76
53699;BME280;68408;53.952;27.612;2023-04-05T21:06:06;1015.1;;;3.7;75.8
53699;BME280;68408;53.952;27.612;2023-04-05T21:11:35;1015;;;3.8;76.1
53699;BME280;68408;53.952;27.612;2023-04-05T21:15:54;1015;;;3.8;76
53699;BME280;68408;53.952;27.612;2023-04-05T21:21:05;1014.9;;;3.8;76
53699;BME280;68408;53.952;27.612;2023-04-05T21:26:35;1014.9;;;3.7;76.1
53699;BME280;68408;53.952;27.612;2023-04-05T21:31:05;1014.8;;;3.7;76.2
53699;BME280;68408;53.952;27.612;2023-04-05T21:36:17;1014.8;;;3.7;76.2
53699;BME280;68408;53.952;27.612;2023-04-05T21:40:53;1014.8;;;3.7;76.4
53699;BME280;68408;53.952;27.612;2023-04-05T21:45:59;1014.9;;;3.7;76.5
53699;BME280;68408;53.952;27.612;2023-04-05T21:51:33;1014.8;;;3.7;76.6
53699;BME280;68408;53.952;27.612;2023-04-05T21:56:21;1014.8;;;3.7;76.6
53699;BME280;68408;53.952;27.612;2023-04-05T22:01:15;1014.8;;;3.7;76.6
53699;BME280;68408;53.952;27.612;2023-04-05T22:06:09;1014.8;;;3.7;76.7
53699;BME280;68408;53.952;27.612;2023-04-05T22:10:59;1014.7;;;3.7;76.7
53699;BME280;68408;53.952;27.612;2023-04-05T22:16:35;1014.7;;;3.7;76.6
53699;BME280;68408;53.952;27.612;2023-04-05T22:20:53;1014.7;;;3.7;76.5
53699;BME280;68408;53.952;27.612;2023-04-05T22:26:17;1014.7;;;3.8;76.6
53699;BME280;68408;53.952;27.612;2023-04-05T22:30:53;1014.7;;;3.9;76.5
53699;BME280;68408;53.952;27.612;2023-04-05T22:36:06;1014.7;;;3.9;76.6
53699;BME280;68408;53.952;27.612;2023-04-05T22:41:35;1014.7;;;3.9;76.8
53699;BME280;68408;53.952;27.612;2023-04-05T22:45:53;1014.7;;;3.9;76.9
53699;BME280;68408;53.952;27.612;2023-04-05T22:51:17;1014.6;;;3.9;76.9
53699;BME280;68408;53.952;27.612;2023-04-05T22:55:59;1014.6;;;3.9;76.9
53699;BME280;68408;53.952;27.612;2023-04-05T23:00:53;1014.6;;;4;77.1
53699;BME280;68408;53.952;27.612;2023-04-05T23:06:23;1014.5;;;4;77
53699;BME280;68408;53.952;27.612;2023-04-05T23:11:07;1014.4;;;4;76.8
53699;BME280;68408;53.952;27.612;2023-04-05T23:16:17;1014.4;;;4;77
53699;BME280;68408;53.952;27.612;2023-04-05T23:21:27;1014.4;;;4;77.3
53699;BME280;68408;53.952;27.612;2023-04-05T23:25:59;1014.4;;;4;77.2
53699;BME280;68408;53.952;27.612;2023-04-05T23:31:35;1014.3;;;4;77.1
53699;BME280;68408;53.952;27.612;2023-04-05T23:36:05;1014.3;;;4;77.3
53699;BME280;68408;53.952;27.612;2023-04-05T23:41:17;1014.3;;;4;77.3
53699;BME280;68408;53.952;27.612;2023-04-05T23:45:53;1014.2;;;4.1;77.2
53699;BME280;68408;53.952;27.612;2023-04-05T23:51:21;1014.2;;;4.2;77.1
53699;BME280;68408;53.952;27.612;2023-04-05T23:56:35;1014.2;;;4.2;77
